Time;durP1;ratioP1;P1;durP2;ratioP2;P2;SDS_P1;SDS_P2;PMS_P1;PMS_P2;Temp;Humidity;BMP_temperature;BMP_pressure;BME280_temperature;BME280_humidity;BME280_pressure;Samples;Min_cycle;Max_cycle;Signal;HPM_P1;HPM_P2
2021/01/01 00:00:10;;;;;;;102.73;50.37;;;5.70;99.90;;;;;;4206162;28;20284;-46
2021/01/01 00:02:11;;;;;;;102.93;51.47;;;5.70;99.90;;;;;;4205987;28;20695;-51
2021/01/01 00:04:13;;;;;;;105.67;53.60;;;5.70;99.90;;;;;;4207087;28;20044;-49
2021/01/01 00:06:15;;;;;;;100.77;50.73;;;5.80;99.90;;;;;;4206080;28;20307;-50
2021/01/01 00:08:18;;;;;;;98.20;52.30;;;5.80;99.90;;;;;;4207152;28;20039;-49
2021/01/01 00:10:19;;;;;;;119.00;59.30;;;5.90;99.90;;;;;;4205508;28;20094;-49
2021/01/01 00:12:20;;;;;;;122.63;62.83;;;5.90;99.90;;;;;;4207699;28;20092;-48
2021/01/01 00:14:21;;;;;;;117.37;60.03;;;5.90;99.90;;;;;;4205686;28;20446;-47
2021/01/01 00:16:23;;;;;;;130.83;67.30;;;5.80;99.90;;;;;;4207633;28;20066;-52
2021/01/01 00:18:25;;;;;;;144.50;73.87;;;5.90;99.90;;;;;;4206199;28;20141;-48
2021/01/01 00:20:26;;;;;;;132.37;70.10;;;5.90;99.90;;;;;;4207355;28;20036;-46
2021/01/01 00:22:27;;;;;;;120.40;62.00;;;5.80;99.90;;;;;;4205333;28;20043;-50
2021/01/01 00:24:28;;;;;;;113.67;58.90;;;5.80;99.90;;;;;;4190410;28;20086;-49
2021/01/01 00:26:29;;;;;;;118.07;60.50;;;5.80;99.90;;;;;;4189296;28;20098;-50
2021/01/01 00:28:30;;;;;;;121.10;62.73;;;5.90;99.90;;;;;;4191181;28;20105;-47
2021/01/01 00:30:31;;;;;;;114.73;62.40;;;5.90;99.90;;;;;;4206635;28;20522;-50
2021/01/01 00:32:33;;;;;;;113.47;58.43;;;5.90;99.90;;;;;;4206418;28;20085;-54
2021/01/01 00:34:34;;;;;;;131.37;63.67;;;5.90;99.90;;;;;;4206137;28;20024;-50
2021/01/01 00:36:35;;;;;;;115.17;59.70;;;5.90;99.90;;;;;;4206294;28;20036;-50
2021/01/01 00:38:36;;;;;;;122.23;62.60;;;5.90;99.90;;;;;;4207427;28;20081;-51
2021/01/01 00:40:37;;;;;;;109.77;55.67;;;5.90;99.90;;;;;;4205540;28;20041;-50
2021/01/01 00:42:39;;;;;;;117.23;60.90;;;5.90;99.90;;;;;;4207092;28;20499;-53
2021/01/01 00:44:41;;;;;;;108.67;57.13;;;5.90;99.90;;;;;;4205429;28;20093;-54
2021/01/01 00:46:42;;;;;;;118.33;62.60;;;5.90;99.90;;;;;;4207269;28;20060;-53
2021/01/01 00:48:43;;;;;;;123.40;62.23;;;5.90;99.90;;;;;;4205400;28;20040;-50
2021/01/01 00:50:44;;;;;;;118.80;61.23;;;5.90;99.90;;;;;;4205435;28;20115;-51
2021/01/01 00:52:45;;;;;;;116.13;59.73;;;5.90;99.90;;;;;;4205536;28;20517;-48
2021/01/01 00:54:47;;;;;;;121.00;60.33;;;5.80;99.90;;;;;;4206790;28;20457;-51
2021/01/01 00:56:48;;;;;;;102.20;53.13;;;5.80;99.90;;;;;;4205771;28;20086;-49
2021/01/01 00:58:50;;;;;;;103.33;52.50;;;5.80;99.90;;;;;;4206936;28;20487;-51
2021/01/01 01:00:51;;;;;;;96.87;50.47;;;5.80;99.90;;;;;;4206436;28;20031;-46
2021/01/01 01:02:52;;;;;;;99.27;50.33;;;5.80;99.90;;;;;;4206385;28;20040;-50
2021/01/01 01:04:53;;;;;;;90.80;45.40;;;5.90;99.90;;;;;;4206768;28;20093;-46
2021/01/01 01:06:55;;;;;;;84.63;42.53;;;5.90;99.90;;;;;;4207629;28;20265;-51
2021/01/01 01:08:56;;;;;;;85.03;41.60;;;5.90;99.90;;;;;;4209990;28;20768;-56
2021/01/01 01:10:57;;;;;;;82.13;42.13;;;5.90;99.90;;;;;;4208816;28;20318;-45
2021/01/01 01:12:58;;;;;;;86.00;42.97;;;6.00;99.90;;;;;;4209918;28;20276;-44
2021/01/01 01:14:59;;;;;;;71.17;37.17;;;6.00;99.90;;;;;;4209018;28;20040;-47
2021/01/01 01:17:00;;;;;;;72.37;35.47;;;6.00;99.90;;;;;;4212570;28;20028;-46
2021/01/01 01:19:02;;;;;;;65.63;32.67;;;6.00;99.90;;;;;;4208209;28;20041;-53
2021/01/01 01:21:03;;;;;;;59.50;30.60;;;6.00;99.90;;;;;;4209019;28;20331;-50
2021/01/01 01:23:04;;;;;;;54.73;27.37;;;6.00;99.90;;;;;;4208296;28;20942;-49
2021/01/01 01:25:06;;;;;;;46.67;25.93;;;6.00;99.90;;;;;;4209528;28;20048;-47
2021/01/01 01:27:07;;;;;;;46.60;25.07;;;6.10;99.90;;;;;;4208478;28;20089;-53
2021/01/01 01:29:08;;;;;;;43.33;22.67;;;6.10;99.90;;;;;;4209111;28;20085;-46
2021/01/01 01:31:09;;;;;;;39.63;21.13;;;6.10;99.90;;;;;;4208929;28;20036;-50
2021/01/01 01:33:10;;;;;;;42.27;22.43;;;6.10;99.90;;;;;;4208985;28;20273;-47
2021/01/01 01:35:11;;;;;;;39.67;21.17;;;6.10;99.90;;;;;;4209333;28;20369;-47
2021/01/01 01:37:12;;;;;;;39.43;20.47;;;6.00;99.90;;;;;;4208301;28;20039;-51
2021/01/01 01:39:13;;;;;;;34.60;18.27;;;6.00;99.90;;;;;;4208975;28;20040;-50
2021/01/01 01:41:14;;;;;;;31.43;17.90;;;6.10;99.90;;;;;;4208313;28;20564;-52
2021/01/01 01:43:16;;;;;;;33.10;17.27;;;6.00;99.90;;;;;;4210060;28;20739;-50
2021/01/01 01:45:17;;;;;;;29.47;15.90;;;6.00;99.90;;;;;;4208021;28;20062;-49
2021/01/01 01:47:20;;;;;;;31.53;16.03;;;6.00;99.90;;;;;;4208201;28;20043;-54
2021/01/01 01:49:22;;;;;;;35.20;18.53;;;6.00;99.90;;;;;;4206939;28;20048;-48
2021/01/01 01:51:23;;;;;;;33.63;17.90;;;6.00;99.90;;;;;;4209188;28;20036;-46
2021/01/01 01:53:25;;;;;;;29.87;16.20;;;6.00;99.90;;;;;;4207745;28;20044;-48
2021/01/01 01:55:27;;;;;;;24.57;13.50;;;6.00;99.90;;;;;;4209024;28;20349;-47
2021/01/01 01:57:28;;;;;;;26.83;14.83;;;6.00;99.90;;;;;;4208227;28;20056;-45
2021/01/01 01:59:29;;;;;;;30.63;14.93;;;6.00;99.90;;;;;;4208474;28;20036;-48
2021/01/01 02:01:31;;;;;;;36.07;18.23;;;6.00;99.90;;;;;;4207751;28;20043;-48
2021/01/01 02:03:33;;;;;;;34.63;17.77;;;6.00;99.90;;;;;;4208124;28;20040;-51
2021/01/01 02:05:37;;;;;;;32.27;16.43;;;6.00;99.90;;;;;;4208189;28;20058;-47
2021/01/01 02:07:38;;;;;;;28.40;14.87;;;5.90;99.90;;;;;;4208025;28;20958;-47
2021/01/01 02:09:39;;;;;;;26.23;12.53;;;5.80;99.90;;;;;;4208576;28;20094;-47
2021/01/01 02:11:46;;;;;;;24.97;12.67;;;5.80;99.90;;;;;;4208019;28;20044;-47
2021/01/01 02:13:52;;;;;;;18.67;10.90;;;5.80;99.90;;;;;;4209345;28;20061;-47
2021/01/01 02:15:53;;;;;;;22.17;11.67;;;5.70;99.90;;;;;;4207542;28;20035;-51
2021/01/01 02:17:55;;;;;;;17.53;8.97;;;5.70;99.90;;;;;;4209329;28;20409;-50
2021/01/01 02:20:09;;;;;;;15.63;8.60;;;5.70;99.90;;;;;;4207705;28;20036;-49
2021/01/01 02:22:10;;;;;;;12.93;7.80;;;5.70;99.90;;;;;;4207546;28;20571;-53
2021/01/01 02:24:12;;;;;;;13.90;7.63;;;5.70;99.90;;;;;;4207474;28;20109;-49
2021/01/01 02:26:16;;;;;;;13.23;6.70;;;5.70;99.90;;;;;;4208682;28;20032;-50
2021/01/01 02:28:17;;;;;;;12.43;6.57;;;5.70;99.90;;;;;;4207558;28;20340;-49
2021/01/01 02:30:19;;;;;;;12.33;6.97;;;5.70;99.90;;;;;;4208907;28;20040;-49
2021/01/01 02:32:20;;;;;;;12.00;6.57;;;5.60;99.90;;;;;;4206211;28;20280;-45
2021/01/01 02:34:21;;;;;;;10.60;6.10;;;5.60;99.90;;;;;;4208516;28;20272;-48
2021/01/01 02:36:22;;;;;;;13.97;7.07;;;5.50;99.90;;;;;;4207623;28;20322;-46
2021/01/01 02:38:23;;;;;;;13.27;6.47;;;5.50;99.90;;;;;;4207091;28;20277;-48
2021/01/01 02:40:24;;;;;;;11.27;6.80;;;5.50;99.90;;;;;;4207664;28;20016;-47
2021/01/01 02:42:25;;;;;;;10.27;6.37;;;5.40;99.90;;;;;;4207775;28;20788;-50
2021/01/01 02:44:27;;;;;;;11.50;6.43;;;5.40;99.90;;;;;;4208142;28;20276;-53
2021/01/01 02:46:28;;;;;;;10.80;5.93;;;5.40;99.90;;;;;;4207428;28;20330;-51
2021/01/01 02:48:29;;;;;;;8.77;5.77;;;5.30;99.90;;;;;;4207430;28;20813;-49
2021/01/01 02:50:30;;;;;;;10.67;6.20;;;5.30;99.90;;;;;;4207029;28;20257;-47
2021/01/01 02:52:31;;;;;;;8.90;5.73;;;5.30;99.90;;;;;;4206410;28;20281;-47
2021/01/01 02:54:32;;;;;;;7.30;4.80;;;5.30;99.90;;;;;;4207464;28;20277;-47
2021/01/01 02:56:33;;;;;;;7.83;4.80;;;5.30;99.90;;;;;;4208438;28;20277;-46
2021/01/01 02:58:35;;;;;;;6.20;3.80;;;5.20;99.90;;;;;;4206049;28;20710;-53
2021/01/01 03:00:39;;;;;;;6.83;4.10;;;5.20;99.90;;;;;;4208014;28;20272;-48
2021/01/01 03:02:40;;;;;;;5.70;3.77;;;5.20;99.90;;;;;;4206940;28;20280;-46
2021/01/01 03:04:41;;;;;;;6.43;3.67;;;5.30;99.90;;;;;;4206146;28;20277;-50
2021/01/01 03:06:42;;;;;;;7.70;4.20;;;5.30;99.90;;;;;;4206639;28;20284;-49
2021/01/01 03:08:43;;;;;;;5.40;3.60;;;5.30;99.90;;;;;;4207815;28;20284;-48
2021/01/01 03:10:44;;;;;;;6.03;2.90;;;5.30;99.90;;;;;;4205211;28;20288;-51
2021/01/01 03:12:46;;;;;;;5.27;3.30;;;5.30;99.90;;;;;;4207461;28;20272;-49
2021/01/01 03:14:47;;;;;;;8.13;4.13;;;5.30;99.90;;;;;;4207267;28;20299;-50
2021/01/01 03:16:48;;;;;;;5.83;3.03;;;5.30;99.90;;;;;;4207603;28;20326;-49
2021/01/01 03:18:50;;;;;;;7.30;3.53;;;5.40;99.90;;;;;;4207471;28;20265;-46
2021/01/01 03:20:51;;;;;;;5.20;3.07;;;5.40;99.90;;;;;;4206262;28;20306;-50
2021/01/01 03:22:52;;;;;;;5.10;3.10;;;5.40;99.90;;;;;;4208075;28;20288;-46
2021/01/01 03:24:53;;;;;;;4.87;3.00;;;5.40;99.90;;;;;;4206060;28;20306;-49
2021/01/01 03:26:54;;;;;;;6.87;3.40;;;5.40;99.90;;;;;;4207871;28;20326;-51
2021/01/01 03:28:55;;;;;;;4.67;2.70;;;5.40;99.90;;;;;;4205742;28;20354;-46
2021/01/01 03:30:56;;;;;;;4.33;2.50;;;5.40;99.90;;;;;;4207116;28;20268;-49
2021/01/01 03:32:57;;;;;;;3.30;2.40;;;5.40;99.90;;;;;;4205956;28;20269;-49
2021/01/01 03:34:59;;;;;;;5.97;2.97;;;5.40;99.90;;;;;;4207770;28;20326;-48
2021/01/01 03:37:00;;;;;;;4.87;2.90;;;5.40;99.90;;;;;;4206114;28;20322;-46
2021/01/01 03:39:01;;;;;;;4.27;2.50;;;5.40;99.90;;;;;;4207630;28;20421;-48
2021/01/01 03:41:02;;;;;;;2.90;1.80;;;5.40;99.90;;;;;;4206217;28;20265;-50
2021/01/01 03:43:03;;;;;;;3.33;2.03;;;5.40;99.90;;;;;;4207109;28;20365;-50
2021/01/01 03:45:05;;;;;;;2.80;1.90;;;5.40;99.90;;;;;;4206683;28;20253;-48
2021/01/01 03:47:06;;;;;;;5.33;1.70;;;5.40;99.90;;;;;;4206292;28;20277;-48
2021/01/01 03:49:08;;;;;;;5.20;2.23;;;5.40;99.90;;;;;;4206737;28;20264;-52
2021/01/01 03:51:09;;;;;;;4.00;2.30;;;5.40;99.90;;;;;;4206628;28;20772;-52
2021/01/01 03:53:10;;;;;;;5.03;2.30;;;5.40;99.90;;;;;;4207430;28;20269;-46
2021/01/01 03:55:11;;;;;;;3.40;2.30;;;5.40;99.90;;;;;;4206261;28;20272;-52
2021/01/01 03:57:12;;;;;;;4.50;2.23;;;5.40;99.90;;;;;;4207236;28;20306;-51
2021/01/01 03:59:13;;;;;;;5.73;2.50;;;5.40;99.90;;;;;;4206369;28;20823;-48
2021/01/01 04:01:17;;;;;;;3.40;2.10;;;5.40;99.90;;;;;;4206847;28;20326;-48
2021/01/01 04:03:18;;;;;;;4.93;2.60;;;5.40;99.90;;;;;;4205540;28;20366;-48
2021/01/01 04:05:20;;;;;;;7.73;3.00;;;5.30;99.90;;;;;;4207696;28;20276;-49
2021/01/01 04:07:21;;;;;;;5.83;2.70;;;5.30;99.90;;;;;;4205962;28;20269;-48
2021/01/01 04:09:22;;;;;;;5.67;2.97;;;5.30;99.90;;;;;;4206974;28;20284;-46
2021/01/01 04:11:23;;;;;;;6.00;3.13;;;5.30;99.90;;;;;;4205771;28;20032;-49
2021/01/01 04:13:24;;;;;;;5.40;2.90;;;5.30;99.90;;;;;;4207205;28;20276;-48
2021/01/01 04:15:25;;;;;;;4.53;2.50;;;5.20;99.90;;;;;;4206412;28;20318;-47
2021/01/01 04:17:26;;;;;;;3.63;2.10;;;5.20;99.90;;;;;;4206766;28;20369;-55
2021/01/01 04:19:27;;;;;;;5.27;2.53;;;5.20;99.90;;;;;;4206671;28;20314;-49
2021/01/01 04:21:28;;;;;;;4.83;2.97;;;5.20;99.90;;;;;;4206908;28;20315;-48
2021/01/01 04:23:29;;;;;;;6.57;2.70;;;5.20;99.90;;;;;;4207556;28;20293;-51
2021/01/01 04:25:30;;;;;;;5.47;3.90;;;5.20;99.90;;;;;;4205545;28;20663;-47
2021/01/01 04:27:32;;;;;;;9.07;6.30;;;5.20;99.90;;;;;;4207483;28;20280;-47
2021/01/01 04:29:33;;;;;;;4.53;2.40;;;5.10;99.90;;;;;;4205931;28;20380;-55
2021/01/01 04:31:35;;;;;;;4.63;2.73;;;5.10;99.90;;;;;;4207196;28;20305;-47
2021/01/01 04:33:37;;;;;;;3.70;2.00;;;5.00;99.90;;;;;;4205454;28;20350;-52
2021/01/01 04:35:38;;;;;;;2.97;2.03;;;4.90;99.90;;;;;;4207093;28;20277;-46
2021/01/01 04:37:39;;;;;;;3.30;1.73;;;4.90;99.90;;;;;;4205967;28;20273;-47
2021/01/01 04:39:40;;;;;;;3.00;1.80;;;5.00;99.90;;;;;;4207247;28;20273;-47
2021/01/01 04:41:41;;;;;;;2.27;1.60;;;5.00;99.90;;;;;;4207512;28;20690;-47
2021/01/01 04:43:43;;;;;;;2.87;1.93;;;5.00;99.90;;;;;;4210044;28;20362;-46
2021/01/01 04:45:44;;;;;;;1.90;1.37;;;5.00;99.90;;;;;;4209109;28;20302;-52
2021/01/01 04:47:46;;;;;;;2.37;1.70;;;5.00;99.90;;;;;;4209464;28;20310;-50
2021/01/01 04:49:50;;;;;;;1.70;1.23;;;5.00;99.90;;;;;;4209151;28;20342;-49
2021/01/01 04:51:51;;;;;;;2.40;1.70;;;5.00;99.90;;;;;;4209463;28;20280;-47
2021/01/01 04:53:55;;;;;;;2.03;1.27;;;5.00;99.90;;;;;;4210373;28;20264;-49
2021/01/01 04:55:57;;;;;;;2.87;1.77;;;5.00;99.90;;;;;;4209196;28;20261;-52
2021/01/01 04:57:59;;;;;;;3.23;1.43;;;5.00;99.90;;;;;;4209727;28;20285;-48
2021/01/01 05:00:00;;;;;;;3.53;1.60;;;5.10;99.90;;;;;;4209141;28;20338;-46
2021/01/01 05:02:01;;;;;;;2.03;1.30;;;5.10;99.90;;;;;;4210456;28;21037;-54
2021/01/01 05:04:04;;;;;;;2.60;1.57;;;5.10;99.90;;;;;;4208634;28;20261;-47
2021/01/01 05:06:06;;;;;;;2.80;1.43;;;5.10;99.90;;;;;;4209833;28;20310;-45
2021/01/01 05:08:10;;;;;;;2.87;1.33;;;5.10;99.90;;;;;;4208865;28;20278;-49
2021/01/01 05:10:11;;;;;;;2.60;1.30;;;5.10;99.90;;;;;;4209463;28;20618;-50
2021/01/01 05:12:13;;;;;;;1.33;1.23;;;5.00;99.90;;;;;;4209065;28;20269;-53
2021/01/01 05:14:14;;;;;;;1.77;1.20;;;5.00;99.90;;;;;;4210238;28;20306;-49
2021/01/01 05:16:18;;;;;;;2.13;1.43;;;5.00;99.90;;;;;;4208728;28;20334;-51
2021/01/01 05:18:25;;;;;;;2.57;1.20;;;4.90;99.90;;;;;;4208392;28;20287;-57
2021/01/01 05:20:29;;;;;;;2.33;0.97;;;4.90;99.90;;;;;;4208463;28;20310;-52
2021/01/01 05:22:34;;;;;;;1.40;0.77;;;4.90;99.90;;;;;;4209251;28;20333;-52
2021/01/01 05:25:00;;;;;;;3.10;0.77;;;4.90;99.90;;;;;;4208651;28;20284;-50
2021/01/01 05:27:13;;;;;;;2.10;0.73;;;4.90;99.90;;;;;;4208884;28;20817;-50
2021/01/01 05:29:20;;;;;;;0.90;0.60;;;4.80;99.90;;;;;;4208329;28;20310;-53
2021/01/01 05:31:27;;;;;;;0.77;0.43;;;4.80;99.90;;;;;;4209812;28;20732;-54
2021/01/01 05:33:29;;;;;;;1.13;0.70;;;4.80;99.90;;;;;;4208223;28;20265;-52
2021/01/01 05:35:31;;;;;;;0.83;0.50;;;4.80;99.90;;;;;;4209380;28;20272;-53
2021/01/01 05:37:34;;;;;;;2.17;0.83;;;4.80;99.90;;;;;;4208316;28;20269;-46
2021/01/01 05:39:36;;;;;;;0.87;0.57;;;4.70;99.90;;;;;;4208226;28;20310;-51
2021/01/01 05:41:42;;;;;;;1.53;0.90;;;4.70;99.90;;;;;;4208782;28;20683;-51
2021/01/01 05:43:43;;;;;;;3.10;1.20;;;4.70;99.90;;;;;;4208503;28;21235;-56
2021/01/01 05:45:45;;;;;;;2.07;0.90;;;4.70;99.90;;;;;;4209380;28;20310;-50
2021/01/01 05:48:06;;;;;;;2.23;0.70;;;4.60;99.90;;;;;;4208442;28;20257;-51
2021/01/01 05:50:08;;;;;;;1.07;0.80;;;4.50;99.90;;;;;;4208183;28;20260;-55
2021/01/01 05:52:18;;;;;;;1.33;1.03;;;4.50;99.90;;;;;;4207809;28;20330;-47
2021/01/01 05:54:19;;;;;;;1.17;0.70;;;4.50;99.90;;;;;;4208695;28;20256;-49
2021/01/01 05:56:20;;;;;;;2.10;1.43;;;4.50;99.90;;;;;;4207924;28;20268;-48
2021/01/01 05:58:25;;;;;;;2.37;1.40;;;4.50;99.90;;;;;;4209260;28;20310;-50
2021/01/01 06:00:27;;;;;;;2.57;1.10;;;4.50;99.90;;;;;;4207741;28;20318;-51
2021/01/01 06:02:36;;;;;;;2.27;1.30;;;4.40;99.90;;;;;;4209263;28;20273;-47
2021/01/01 06:04:38;;;;;;;1.87;0.97;;;4.40;99.90;;;;;;4208137;28;20277;-51
2021/01/01 06:06:43;;;;;;;2.57;1.30;;;4.40;99.90;;;;;;4208519;28;20277;-51
2021/01/01 06:08:47;;;;;;;1.87;1.10;;;4.40;99.90;;;;;;4207832;28;20285;-49
2021/01/01 06:10:50;;;;;;;2.93;1.30;;;4.30;99.90;;;;;;4208973;28;20261;-47
2021/01/01 06:12:54;;;;;;;2.40;1.30;;;4.30;99.90;;;;;;4207323;28;20314;-51
2021/01/01 06:14:59;;;;;;;2.07;1.33;;;4.40;99.90;;;;;;4209682;28;20265;-51
2021/01/01 06:17:09;;;;;;;3.97;1.30;;;4.30;99.90;;;;;;4207706;28;20272;-56
2021/01/01 06:19:12;;;;;;;3.00;1.77;;;4.30;99.90;;;;;;4208836;28;20288;-47
2021/01/01 06:21:31;;;;;;;1.17;0.70;;;4.40;99.90;;;;;;4207884;28;20028;-52
2021/01/01 06:23:38;;;;;;;1.43;0.90;;;4.30;99.90;;;;;;4208743;28;20308;-46
2021/01/01 06:25:39;;;;;;;1.07;0.60;;;4.30;99.90;;;;;;4207018;28;20813;-51
2021/01/01 06:27:41;;;;;;;1.27;0.73;;;4.40;99.90;;;;;;4208768;28;20314;-54
2021/01/01 06:29:45;;;;;;;2.03;0.73;;;4.30;99.90;;;;;;4207423;28;20260;-47
2021/01/01 06:31:47;;;;;;;2.53;1.00;;;4.40;99.90;;;;;;4208010;28;20345;-49
2021/01/01 06:33:48;;;;;;;2.40;0.80;;;4.40;99.90;;;;;;4207563;28;20302;-46
2021/01/01 06:35:49;;;;;;;1.07;0.73;;;4.40;99.90;;;;;;4207977;28;20281;-51
2021/01/01 06:37:52;;;;;;;5.10;1.03;;;4.40;99.90;;;;;;4208180;28;20314;-51
2021/01/01 06:39:54;;;;;;;1.70;0.70;;;4.30;99.90;;;;;;4207430;28;20756;-50
2021/01/01 06:41:55;;;;;;;1.10;0.70;;;4.30;99.90;;;;;;4208383;28;20276;-52
2021/01/01 06:43:56;;;;;;;4.17;0.80;;;4.30;99.90;;;;;;4207377;28;20285;-50
2021/01/01 06:45:58;;;;;;;1.63;0.63;;;4.20;99.90;;;;;;4208724;28;20280;-49
2021/01/01 06:47:59;;;;;;;0.50;0.50;;;4.10;99.90;;;;;;4207333;28;20826;-51
2021/01/01 06:50:01;;;;;;;1.10;0.87;;;4.10;99.90;;;;;;4208610;28;20273;-48
2021/01/01 06:52:20;;;;;;;1.20;0.50;;;4.00;99.90;;;;;;4206932;28;20264;-47
2021/01/01 06:54:21;;;;;;;0.63;0.40;;;4.00;99.90;;;;;;4208073;28;20265;-47
2021/01/01 06:56:22;;;;;;;1.63;0.70;;;4.00;99.90;;;;;;4206430;28;20330;-51
2021/01/01 06:58:26;;;;;;;1.17;0.60;;;4.10;99.90;;;;;;4208555;28;20599;-48
2021/01/01 07:00:45;;;;;;;1.97;0.90;;;4.10;99.90;;;;;;4204711;28;20330;-46
2021/01/01 07:02:46;;;;;;;1.23;0.80;;;4.10;99.90;;;;;;4208555;28;20300;-46
2021/01/01 07:04:50;;;;;;;1.43;0.83;;;4.20;99.90;;;;;;4206240;28;20651;-50
2021/01/01 07:06:51;;;;;;;1.43;1.10;;;4.20;99.90;;;;;;4208391;28;20280;-49
2021/01/01 07:08:52;;;;;;;1.50;0.93;;;4.30;99.90;;;;;;4206659;28;20341;-51
2021/01/01 07:10:54;;;;;;;1.37;0.70;;;4.20;99.90;;;;;;4208108;28;20277;-50
2021/01/01 07:13:17;;;;;;;1.77;0.90;;;4.30;99.90;;;;;;4206191;28;20849;-47
2021/01/01 07:15:33;;;;;;;2.90;0.90;;;4.30;99.90;;;;;;4208308;28;20272;-47
2021/01/01 07:18:01;;;;;;;3.63;1.30;;;4.30;99.90;;;;;;4206830;28;20322;-48
2021/01/01 07:20:03;;;;;;;2.67;1.13;;;4.30;99.90;;;;;;4205179;28;20342;-54
2021/01/01 07:22:04;;;;;;;1.70;1.00;;;4.30;99.90;;;;;;4206330;28;20676;-49
2021/01/01 07:24:06;;;;;;;1.60;0.97;;;4.30;99.90;;;;;;4207707;28;20292;-55
2021/01/01 07:26:08;;;;;;;2.40;1.07;;;4.40;99.90;;;;;;4205950;28;20281;-49
2021/01/01 07:28:10;;;;;;;4.00;1.27;;;4.40;99.90;;;;;;4205560;28;20333;-49
2021/01/01 07:30:12;;;;;;;1.93;1.00;;;4.40;99.90;;;;;;4206370;28;20245;-49
2021/01/01 07:32:17;;;;;;;4.57;1.30;;;4.40;99.90;;;;;;4207193;28;20269;-53
2021/01/01 07:34:20;;;;;;;1.80;1.10;;;4.50;99.90;;;;;;4207061;28;20655;-46
2021/01/01 07:36:21;;;;;;;1.03;0.77;;;4.50;99.90;;;;;;4205547;28;20257;-51
2021/01/01 07:38:23;;;;;;;1.83;1.00;;;4.50;99.90;;;;;;4206535;28;20249;-45
2021/01/01 07:40:24;;;;;;;2.47;1.20;;;4.50;99.90;;;;;;4206777;28;21109;-46
2021/01/01 07:42:26;;;;;;;2.33;1.30;;;4.40;99.90;;;;;;4207416;28;20761;-48
2021/01/01 07:44:27;;;;;;;1.43;1.13;;;4.40;99.90;;;;;;4205973;28;20286;-50
2021/01/01 07:46:30;;;;;;;2.03;1.07;;;4.40;99.90;;;;;;4207565;28;20302;-49
2021/01/01 07:48:32;;;;;;;1.90;1.10;;;4.40;99.90;;;;;;4206297;28;20261;-44
2021/01/01 07:50:35;;;;;;;1.70;1.13;;;4.40;99.90;;;;;;4206988;28;20277;-49
2021/01/01 07:52:36;;;;;;;1.60;1.17;;;4.40;99.90;;;;;;4206348;28;20280;-46
2021/01/01 07:54:49;;;;;;;1.97;1.40;;;4.40;99.90;;;;;;4205629;28;20281;-49
2021/01/01 07:56:50;;;;;;;3.20;1.20;;;4.40;99.90;;;;;;4206080;28;20377;-46
2021/01/01 07:58:53;;;;;;;3.07;1.07;;;4.40;99.90;;;;;;4207627;28;20276;-53
2021/01/01 08:01:00;;;;;;;1.80;1.20;;;4.50;99.90;;;;;;4206442;28;20272;-43
2021/01/01 08:03:02;;;;;;;1.43;0.97;;;4.50;99.90;;;;;;4207188;28;20675;-46
2021/01/01 08:05:04;;;;;;;2.10;0.93;;;4.40;99.90;;;;;;4206269;28;20269;-48
2021/01/01 08:07:05;;;;;;;3.17;2.27;;;4.40;99.90;;;;;;4207442;28;20264;-56
2021/01/01 08:09:06;;;;;;;1.90;1.10;;;4.30;99.90;;;;;;4205522;28;20334;-55
2021/01/01 08:11:08;;;;;;;5.00;2.20;;;4.40;99.90;;;;;;4207028;28;20272;-53
2021/01/01 08:13:35;;;;;;;3.20;1.60;;;4.30;99.90;;;;;;4206394;28;20325;-51
2021/01/01 08:15:36;;;;;;;3.17;1.80;;;4.30;99.90;;;;;;4207220;28;20833;-49
2021/01/01 08:17:37;;;;;;;3.83;2.40;;;4.30;99.90;;;;;;4209698;28;20261;-50
2021/01/01 08:19:38;;;;;;;4.83;2.60;;;4.40;99.90;;;;;;4210144;28;20322;-57
2021/01/01 08:21:43;;;;;;;3.73;1.93;;;4.30;99.90;;;;;;4210320;28;20736;-45
2021/01/01 08:24:06;;;;;;;4.53;2.10;;;4.40;99.90;;;;;;4208022;28;20308;-45
2021/01/01 08:26:08;;;;;;;8.53;4.07;;;4.40;99.90;;;;;;4209254;28;20269;-53
2021/01/01 08:28:11;;;;;;;12.57;5.90;;;4.40;99.90;;;;;;4210362;28;20908;-49
2021/01/01 08:30:13;;;;;;;10.37;4.70;;;4.30;99.90;;;;;;4210078;28;20350;-46
2021/01/01 08:32:17;;;;;;;4.57;2.90;;;4.40;99.90;;;;;;4209522;28;20817;-50
2021/01/01 08:34:19;;;;;;;6.60;3.80;;;4.40;99.90;;;;;;4210745;28;20314;-47
2021/01/01 08:36:30;;;;;;;10.33;4.87;;;4.40;99.90;;;;;;4208844;28;20265;-43
2021/01/01 08:38:31;;;;;;;7.18;4.97;;;4.60;99.90;;;;;;4210196;28;20314;-50
2021/01/01 08:40:32;;;;;;;7.97;3.53;;;4.70;99.90;;;;;;4208344;28;20027;-48
2021/01/01 08:42:36;;;;;;;3.60;1.90;;;4.90;99.90;;;;;;4210147;28;20264;-45
2021/01/01 08:44:37;;;;;;;2.00;1.20;;;5.10;99.90;;;;;;4209361;28;20301;-48
2021/01/01 08:46:38;;;;;;;2.57;1.33;;;5.10;99.90;;;;;;4205844;28;20292;-45
2021/01/01 08:48:40;;;;;;;2.73;1.57;;;5.20;99.90;;;;;;4192747;28;20587;-43
2021/01/01 08:50:49;;;;;;;2.23;1.27;;;5.30;99.90;;;;;;4206960;28;20342;-51
2021/01/01 08:52:58;;;;;;;1.47;1.17;;;5.60;99.90;;;;;;4209555;28;20290;-46
2021/01/01 08:55:05;;;;;;;3.10;1.40;;;5.60;99.90;;;;;;4209619;28;20671;-46
2021/01/01 08:57:06;;;;;;;2.97;1.20;;;5.70;99.90;;;;;;4209013;28;20675;-46
2021/01/01 08:59:08;;;;;;;1.60;0.70;;;5.60;99.90;;;;;;4210463;28;20268;-48
2021/01/01 09:01:17;;;;;;;1.57;0.80;;;5.80;99.90;;;;;;4209536;28;20284;-47
2021/01/01 09:03:22;;;;;;;1.20;0.90;;;5.70;99.90;;;;;;4210539;28;20358;-50
2021/01/01 09:05:26;;;;;;;1.47;1.10;;;5.60;99.90;;;;;;4208535;28;20322;-53
2021/01/01 09:07:27;;;;;;;1.90;1.43;;;5.40;99.90;;;;;;4210163;28;20277;-53
2021/01/01 09:09:31;;;;;;;3.00;1.20;;;5.20;99.90;;;;;;4209515;28;20280;-51
2021/01/01 09:11:32;;;;;;;1.17;0.97;;;5.10;99.90;;;;;;4226126;28;20325;-58
2021/01/01 09:13:35;;;;;;;1.97;1.40;;;4.90;99.90;;;;;;4226005;28;20272;-42
2021/01/01 09:15:37;;;;;;;1.40;0.90;;;4.80;99.90;;;;;;4226480;27;20260;-45
2021/01/01 09:17:38;;;;;;;1.57;1.03;;;4.80;99.90;;;;;;4225873;28;20271;-44
2021/01/01 09:19:39;;;;;;;2.00;1.53;;;4.70;99.90;;;;;;4225319;28;20268;-45
2021/01/01 09:21:40;;;;;;;1.63;1.10;;;4.70;99.90;;;;;;4210162;28;20273;-49
2021/01/01 09:23:54;;;;;;;1.40;0.97;;;4.70;99.90;;;;;;4208534;28;20354;-50
2021/01/01 09:25:55;;;;;;;2.77;1.20;;;4.80;99.90;;;;;;4209649;28;21239;-45
2021/01/01 09:27:58;;;;;;;1.67;1.27;;;4.80;99.90;;;;;;4207820;28;20268;-44
2021/01/01 09:30:02;;;;;;;1.40;0.93;;;4.70;99.90;;;;;;4209326;28;20276;-43
2021/01/01 09:32:12;;;;;;;1.57;1.43;;;4.80;99.90;;;;;;4207594;28;20318;-45
2021/01/01 09:34:17;;;;;;;1.30;1.20;;;4.80;99.90;;;;;;4209663;28;20272;-43
2021/01/01 09:36:18;;;;;;;2.87;1.47;;;4.90;99.90;;;;;;4208240;28;20346;-50
2021/01/01 09:38:20;;;;;;;1.70;0.83;;;5.00;99.90;;;;;;4208362;28;20273;-45
2021/01/01 09:40:24;;;;;;;1.80;1.10;;;5.10;99.90;;;;;;4207847;28;20760;-48
2021/01/01 09:42:25;;;;;;;2.57;1.17;;;5.10;99.90;;;;;;4209668;28;20314;-46
2021/01/01 09:44:26;;;;;;;1.47;1.23;;;5.00;99.90;;;;;;4208667;28;20322;-48
2021/01/01 09:46:27;;;;;;;3.27;1.53;;;5.10;99.90;;;;;;4209719;28;20280;-43
2021/01/01 09:48:28;;;;;;;2.83;1.20;;;5.10;99.90;;;;;;4207872;28;20303;-45
2021/01/01 09:50:30;;;;;;;2.80;1.63;;;5.20;99.90;;;;;;4208492;28;20257;-51
2021/01/01 09:52:31;;;;;;;2.90;1.70;;;5.10;99.90;;;;;;4207850;28;20888;-49
2021/01/01 09:54:32;;;;;;;2.77;1.63;;;5.10;99.90;;;;;;4208442;28;20326;-48
2021/01/01 09:56:34;;;;;;;2.17;1.47;;;5.10;99.90;;;;;;4208669;28;20326;-50
2021/01/01 09:58:35;;;;;;;2.80;1.67;;;5.20;99.90;;;;;;4207291;28;20753;-47
2021/01/01 10:00:36;;;;;;;2.00;1.43;;;5.20;99.90;;;;;;4209267;28;20277;-43
2021/01/01 10:02:38;;;;;;;2.23;1.50;;;5.20;99.90;;;;;;4207908;28;20296;-50
2021/01/01 10:04:39;;;;;;;3.77;1.50;;;5.20;99.90;;;;;;4208734;28;20272;-50
2021/01/01 10:06:41;;;;;;;3.07;1.80;;;5.20;99.90;;;;;;4208095;28;20268;-47
2021/01/01 10:08:42;;;;;;;3.07;1.90;;;5.10;99.90;;;;;;4208994;28;21149;-46
2021/01/01 10:10:46;;;;;;;3.23;1.80;;;5.10;99.90;;;;;;4207054;28;20296;-49
2021/01/01 10:12:47;;;;;;;3.37;1.80;;;5.00;99.90;;;;;;4208973;28;20326;-44
2021/01/01 10:14:54;;;;;;;2.03;1.40;;;5.00;99.90;;;;;;4208093;28;20342;-47
2021/01/01 10:16:55;;;;;;;2.50;1.60;;;5.00;99.90;;;;;;4207407;28;20284;-47
2021/01/01 10:18:57;;;;;;;2.50;1.40;;;5.00;99.90;;;;;;4207489;28;20310;-45
2021/01/01 10:20:58;;;;;;;1.67;1.27;;;5.00;99.90;;;;;;4208610;28;20280;-49
2021/01/01 10:23:00;;;;;;;2.33;1.53;;;5.00;99.90;;;;;;4207562;28;20768;-53
2021/01/01 10:25:03;;;;;;;1.50;0.97;;;5.00;99.90;;;;;;4207606;28;21062;-53
2021/01/01 10:27:04;;;;;;;1.47;1.10;;;5.00;99.90;;;;;;4207501;28;20321;-49
2021/01/01 10:29:05;;;;;;;4.73;2.30;;;5.00;99.90;;;;;;4207200;28;20318;-49
2021/01/01 10:31:07;;;;;;;3.23;1.60;;;5.00;99.90;;;;;;4206956;28;20683;-52
2021/01/01 10:33:08;;;;;;;1.93;1.20;;;5.00;99.90;;;;;;4207854;28;20345;-49
2021/01/01 10:35:09;;;;;;;1.70;1.40;;;5.00;99.90;;;;;;4208040;28;20277;-45
2021/01/01 10:37:11;;;;;;;3.77;1.77;;;5.00;99.90;;;;;;4207079;28;20261;-49
2021/01/01 10:39:12;;;;;;;2.17;1.50;;;5.00;99.90;;;;;;4207263;28;20265;-46
2021/01/01 10:41:14;;;;;;;2.30;1.57;;;5.00;99.90;;;;;;4206730;28;20257;-47